Flight Track Log - Related Links

Times and Time Zones

All times are in EDT time to prevent confusion due to time zone crossing. See the ASH3770 flight status page for this flight to view local times or setup timezone preferences in your user account.

Time Position Orientation Groundspeed Altitude Reporting Facility
EDT Latitude Longitude Course Direction KTS MPH feet Rate Location/Type
Sat 02:27:56 PM 42.0000 -87.9333 90° East 153 176 1,600  Level Chicago TRACON
Sat 02:28:50 PM 42.0333 -87.9000 37° Northeast 230 265 3,600 2,333 Climbing Chicago TRACON
Sat 02:29:44 PM 42.0833 -87.8500 37° Northeast 253 291 5,800 2,280 Climbing Chicago TRACON
Sat 02:30:30 PM 42.1264 -87.7989 41° Northeast 258 297 7,400 2,111 Climbing Chicago Center
Sat 02:31:00 PM 42.0754 -87.2020 78° East  Level FlightAware Approximate
Sat 02:31:32 PM 42.1358 -87.6828 84° East 310 357 9,600  Level Chicago Center
Sat 02:32:00 PM 42.1013 -87.0258 77° East  Level FlightAware Approximate
Sat 02:32:34 PM 42.1311 -87.5581 93° East 330 380 12,300  Level Chicago Center
Sat 02:33:00 PM 42.1168 -86.8481 90° East  Level FlightAware Approximate
Sat 02:33:35 PM 42.1264 -87.4278 93° East 346 398 14,500  Level Chicago Center
Sat 02:34:37 PM 42.1208 -87.2806 93° East 387 445 15,200 1,065 Climbing Chicago Center
Sat 02:35:39 PM 42.1150 -87.1203 93° East 421 484 16,700 1,597 Climbing Chicago Center
Sat 02:36:41 PM 42.1169 -86.9228 89° East 439 505 18,500 1,645 Climbing Chicago Center
Sat 02:37:43 PM 42.1244 -86.7561 86° East 445 512 20,100 1,403 Climbing Chicago Center
Sat 02:38:45 PM 42.1294 -86.6058 87° East 453 521 21,400 1,500 Climbing Chicago Center
Sat 02:39:47 PM 42.1364 -86.4017 87° East 454 522 23,200 1,597 Climbing Chicago Center
Sat 02:40:49 PM 42.1417 -86.2311 88° East 456 525 24,700 1,306 Climbing Chicago Center
Sat 02:41:51 PM 42.1450 -86.0614 88° East 455 524 25,900 1,016 Climbing Chicago Center
Sat 02:42:53 PM 42.1428 -85.9022 91° East 461 531 26,800 1,024 Climbing Chicago Center
Sat 02:43:54 PM 42.1408 -85.6900 91° East 475 547 28,000 1,073 Climbing Chicago Center
Sat 02:44:56 PM 42.1397 -85.5119 90° East 478 550 29,000 484 Climbing Chicago Center
Sat 02:45:58 PM 42.1372 -85.3258 91° East 497 572 29,000  Level Chicago Center
Sat 02:47:00 PM 42.1356 -85.1300 91° East 523 602 29,000  Level Chicago Center
Sat 02:48:02 PM 42.1322 -84.9331 91° East 528 608 29,000  Level Chicago Center
Sat 02:49:04 PM 42.1297 -84.7328 91° East 535 616 29,000  Level Chicago Center
Sat 02:50:05 PM 42.1247 -84.4931 92° East 536 617 29,000  Level Chicago Center
Sat 02:51:07 PM 42.1442 -84.2958 82° East 533 613 29,000  Level Chicago Center
Sat 02:52:09 PM 42.1644 -84.0972 82° East 535 616 29,000  Level Chicago Center
Sat 02:53:11 PM 42.1794 -83.8814 85° East 534 615 29,000  Level Cleveland Center
Sat 02:54:11 PM 42.1972 -83.6861 83° East 534 615 29,000  Level Cleveland Center
Sat 02:55:11 PM 42.2131 -83.4847 84° East 541 623 29,000  Level Cleveland Center
Sat 02:56:11 PM 42.2325 -83.2811 83° East 541 623 29,000  Level Cleveland Center
Sat 02:57:11 PM 42.2450 -83.0992 85° East 536 617 29,000  Level Cleveland Center
Sat 02:58:11 PM 42.2617 -82.9006 83° East 536 617 29,000  Level Cleveland Center
Sat 02:59:11 PM 42.2781 -82.7019 84° East 536 617 29,000  Level Cleveland Center
Sat 03:00:11 PM 42.2942 -82.4975 84° East 536 617 29,000  Level Cleveland Center
Sat 03:01:11 PM 42.3078 -82.2958 85° East 536 617 29,000  Level Cleveland Center
Sat 03:02:11 PM 42.3231 -82.0939 84° East 536 617 29,000  Level Cleveland Center
Sat 03:03:11 PM 42.3381 -81.8894 84° East 542 624 29,000 -350 Level Cleveland Center
Sat 03:04:11 PM 42.3528 -81.6844 84° East 542 624 28,300 -1,000 Descending Cleveland Center
Sat 03:05:11 PM 42.3672 -81.4656 85° East 534 615 27,000 -650 Descending Cleveland Center
Sat 03:06:11 PM 42.3789 -81.2719 85° East 534 615 27,000  Level Cleveland Center
Sat 03:07:11 PM 42.3925 -81.0781 85° East 528 608 27,000  Level Cleveland Center
Sat 03:08:11 PM 42.4036 -80.8783 86° East 528 608 27,000  Level Cleveland Center
Sat 03:09:11 PM 42.4497 -80.6900 72° East 523 602 27,000  Level Cleveland Center
Sat 03:10:11 PM 42.4978 -80.4986 71° East 535 616 27,000  Level Cleveland Center
Sat 03:11:11 PM 42.5433 -80.3069 72° East 542 624 27,000  Level Cleveland Center
Sat 03:12:11 PM 42.5864 -80.1292 72° East 542 624 27,000  Level Cleveland Center
Sat 03:13:11 PM 42.6417 -79.9142 71° East 535 616 27,000 -100 Level Cleveland Center
Sat 03:14:11 PM 42.6883 -79.7217 72° East 541 623 26,800 -1,550 Descending Cleveland Center
Sat 03:15:11 PM 42.7306 -79.5261 74° East 541 623 23,900 -3,000 Descending Cleveland Center
Sat 03:16:11 PM 42.7767 -79.3358 72° East 541 623 20,800 -3,050 Descending Cleveland Center
Sat 03:17:11 PM 42.8119 -79.1625 74° East 507 583 17,800 -2,900 Descending Cleveland Center
Sat 03:18:11 PM 42.8517 -78.9944 72° East 479 551 15,000 -2,750 Descending Cleveland Center
Sat 03:19:11 PM 42.8908 -78.8319 72° East 459 528 12,300 -2,640 Descending Cleveland Center
Sat 03:19:26 PM 42.9000 -78.8000 69° East 441 507 11,700 -1,040 Descending Buffalo TRACON
Sat 03:20:26 PM 42.9333 -78.6333 75° East 410 472 11,000 -629 Descending Buffalo TRACON
Sat 03:21:11 PM 42.9528 -78.5408 74° East 404 465 10,600 -951 Descending Cleveland Center
Sat 03:21:48 PM 42.9639 -78.4694 78° East 330 380 9,700 -1,400 Descending Cleveland Center
Sat 03:22:11 PM 42.9756 -78.4181 73° East 353 406 9,200 -1,582 Descending Cleveland Center
Sat 03:23:19 PM 43.0003 -78.2867 76° East 317 365 7,300 -1,031 Descending Cleveland Center
Sat 03:24:19 PM 43.0228 -78.1694 75° East 317 365 7,000 -161 Descending Cleveland Center
Sat 03:25:11 PM 43.0436 -78.0692 74° East 316 364 7,000 -482 Level Cleveland Center
Sat 03:26:11 PM 43.0639 -77.9547 76° East 316 364 6,100 -1,000 Descending Cleveland Center
Sat 03:27:11 PM 43.1183 -77.8697 49° Northeast 289 333 5,000 -1,282 Descending Cleveland Center
Sat 03:28:22 PM 43.1936 -77.7981 35° Northeast 284 327 3,300 -1,145 Descending Cleveland Center
Sat 03:29:22 PM 43.2164 -77.7031 72° East 251 289 2,500 -347 Descending Cleveland Center
Sat 03:30:23 PM 43.2022 -77.6383 107° East 149 171 2,600 98 Climbing Cleveland Center

Login

Don't have an account? Register now (free) for customized features, flight alerts, and more!